Time;durP1;ratioP1;P1;durP2;ratioP2;P2;SDS_P1;SDS_P2;PMS_P1;PMS_P2;Temp;Humidity;BMP_temperature;BMP_pressure;BME280_temperature;BME280_humidity;BME280_pressure;Samples;Min_cycle;Max_cycle;Signal;HPM_P1;HPM_P2
2021/03/04 00:00:37;;;;;;;108.20;55.40;;;8.80;92.20;;;;;;5033136;28;20034;-86
2021/03/04 00:03:05;;;;;;;105.37;54.20;;;8.80;92.20;;;;;;5033455;28;20471;-87
2021/03/04 00:05:30;;;;;;;101.67;53.50;;;8.70;92.30;;;;;;5033412;28;20506;-86
2021/03/04 00:07:57;;;;;;;99.77;50.90;;;8.80;92.30;;;;;;5033659;28;20193;-87
2021/03/04 00:10:23;;;;;;;98.03;51.50;;;8.70;92.20;;;;;;5034147;28;20060;-87
2021/03/04 00:12:49;;;;;;;95.03;52.77;;;8.70;92.30;;;;;;5033425;28;20500;-87
2021/03/04 00:15:17;;;;;;;99.20;52.47;;;8.60;92.30;;;;;;5049117;22;20095;-85
2021/03/04 00:17:44;;;;;;;103.80;53.90;;;8.70;92.30;;;;;;5034698;28;20556;-84
2021/03/04 00:20:14;;;;;;;96.00;52.50;;;8.70;92.40;;;;;;5033672;28;20032;-85
2021/03/04 00:22:40;;;;;;;96.30;52.38;;;8.70;92.50;;;;;;5034373;28;20036;-85
2021/03/04 00:25:08;;;;;;;96.03;52.00;;;8.70;92.70;;;;;;5032994;28;20033;-84
2021/03/04 00:27:33;;;;;;;96.43;53.00;;;8.80;92.30;;;;;;5035784;28;20061;-85
2021/03/04 00:29:59;;;;;;;98.50;53.00;;;8.70;92.50;;;;;;5033453;28;20065;-84
2021/03/04 00:32:25;;;;;;;105.33;53.47;;;8.80;92.70;;;;;;5035410;28;20033;-84
2021/03/04 00:34:51;;;;;;;101.37;54.17;;;8.90;92.70;;;;;;5035606;28;20035;-85
2021/03/04 00:37:17;;;;;;;98.67;53.07;;;9.00;92.80;;;;;;5035487;28;20029;-85
2021/03/04 00:39:42;;;;;;;91.33;51.47;;;9.10;92.70;;;;;;5034128;28;20478;-85
2021/03/04 00:42:08;;;;;;;94.70;50.97;;;9.20;92.50;;;;;;5035558;28;20033;-85
2021/03/04 00:44:35;;;;;;;81.90;46.87;;;9.20;92.40;;;;;;5033701;28;20021;-85
2021/03/04 00:47:01;;;;;;;84.90;46.80;;;9.30;92.20;;;;;;5035371;28;20028;-84
2021/03/04 00:49:26;;;;;;;90.73;48.57;;;9.30;92.20;;;;;;5033474;28;20621;-84
2021/03/04 00:51:52;;;;;;;89.93;48.37;;;9.20;92.50;;;;;;5034991;28;20033;-85
2021/03/04 00:54:17;;;;;;;91.17;48.90;;;9.20;92.20;;;;;;5033854;28;20429;-85
2021/03/04 00:56:43;;;;;;;92.23;47.13;;;9.30;92.40;;;;;;5035931;28;20033;-85
2021/03/04 00:59:09;;;;;;;88.97;47.50;;;9.30;92.70;;;;;;5034045;28;20076;-85
2021/03/04 01:01:34;;;;;;;91.63;48.47;;;9.30;93.00;;;;;;5033895;28;20067;-85
2021/03/04 01:04:00;;;;;;;90.23;47.33;;;9.30;93.50;;;;;;5035331;28;20112;-85
2021/03/04 01:06:25;;;;;;;82.60;45.40;;;9.20;93.10;;;;;;5034006;28;20102;-85
2021/03/04 01:08:51;;;;;;;79.23;43.13;;;9.20;93.60;;;;;;5034234;28;20032;-85
2021/03/04 01:11:17;;;;;;;82.40;44.10;;;9.10;93.10;;;;;;5035301;28;20109;-85
2021/03/04 01:13:44;;;;;;;82.07;43.10;;;9.10;93.30;;;;;;5033578;28;20030;-85
2021/03/04 01:16:09;;;;;;;82.67;44.10;;;9.10;93.10;;;;;;5034765;28;20034;-85
2021/03/04 01:18:35;;;;;;;80.90;45.03;;;9.10;92.90;;;;;;5035840;28;20025;-85
2021/03/04 01:21:06;;;;;;;86.47;46.40;;;9.10;92.90;;;;;;5033420;28;20034;-85
2021/03/04 01:23:32;;;;;;;89.00;47.53;;;9.00;93.60;;;;;;5033953;28;20025;-84
2021/03/04 01:25:59;;;;;;;85.30;45.40;;;9.00;93.90;;;;;;5033631;28;20026;-85
2021/03/04 01:28:24;;;;;;;78.53;43.17;;;8.90;94.00;;;;;;5034973;28;20049;-84
2021/03/04 01:30:50;;;;;;;78.67;41.87;;;9.00;93.50;;;;;;5033004;28;20065;-85
2021/03/04 01:33:16;;;;;;;77.07;42.83;;;9.00;93.00;;;;;;5033546;28;20029;-85
2021/03/04 01:35:42;;;;;;;79.13;42.03;;;8.90;93.20;;;;;;5034563;28;20080;-85
2021/03/04 01:38:08;;;;;;;78.73;42.53;;;8.90;93.30;;;;;;5034597;28;20026;-86
2021/03/04 01:40:33;;;;;;;86.47;42.97;;;8.90;93.40;;;;;;5034300;28;20420;-85
2021/03/04 01:42:59;;;;;;;74.23;40.23;;;8.80;93.70;;;;;;5033223;28;20120;-85
2021/03/04 01:45:25;;;;;;;74.30;40.20;;;8.70;93.60;;;;;;5033938;28;20470;-85
2021/03/04 01:47:54;;;;;;;73.37;41.13;;;8.70;94.20;;;;;;5034297;28;20021;-85
2021/03/04 01:50:21;;;;;;;;;;;8.70;93.90;;;;;;5033074;28;20022;-85
2021/03/04 01:52:47;;;;;;;77.60;40.40;;;8.80;93.50;;;;;;5034142;28;19904;-85
2021/03/04 01:55:15;;;;;;;73.00;38.43;;;8.70;93.50;;;;;;5034128;28;20025;-85
2021/03/04 01:57:42;;;;;;;76.47;40.07;;;8.70;93.40;;;;;;5033905;28;20390;-85
2021/03/04 02:00:09;;;;;;;72.20;38.77;;;8.60;93.30;;;;;;5032335;28;20036;-85
2021/03/04 02:02:35;;;;;;;70.80;38.17;;;8.60;93.50;;;;;;5032594;28;20382;-85
2021/03/04 02:05:04;;;;;;;71.77;38.00;;;8.60;93.20;;;;;;5032897;28;20052;-84
2021/03/04 02:07:48;;;;;;;73.60;40.42;;;8.70;93.30;;;;;;5033098;28;20021;-85
2021/03/04 02:10:32;;;;;;;72.80;37.47;;;8.60;93.20;;;;;;5032192;28;20071;-85
2021/03/04 02:13:23;;;;;;;72.17;39.63;;;8.60;93.50;;;;;;5032629;28;20029;-85
2021/03/04 02:16:07;;;;;;;73.57;39.20;;;8.60;93.30;;;;;;5033933;28;20116;-85
2021/03/04 02:18:36;;;;;;;76.80;38.80;;;8.70;93.20;;;;;;5033274;28;20060;-85
2021/03/04 02:21:27;;;;;;;72.35;38.80;;;8.70;93.10;;;;;;5032518;28;20032;-85
2021/03/04 02:24:01;;;;;;;72.43;36.80;;;8.60;93.00;;;;;;5034573;28;20032;-85
2021/03/04 02:26:30;;;;;;;71.07;38.60;;;8.60;92.80;;;;;;5032882;28;20018;-84
2021/03/04 02:28:58;;;;;;;70.82;37.20;;;8.70;92.70;;;;;;5032432;28;20025;-85
2021/03/04 02:31:25;;;;;;;67.80;36.13;;;8.80;92.70;;;;;;5033626;28;20030;-85
2021/03/04 02:33:53;;;;;;;67.30;35.97;;;8.70;92.70;;;;;;5034307;28;20549;-84
2021/03/04 02:36:19;;;;;;;70.30;37.73;;;8.60;92.80;;;;;;5032486;28;20498;-85
2021/03/04 02:38:46;;;;;;;67.70;37.13;;;8.60;93.20;;;;;;5032568;28;20478;-84
2021/03/04 02:41:13;;;;;;;69.27;36.77;;;8.50;92.80;;;;;;5032272;28;20592;-85
2021/03/04 02:43:40;;;;;;;74.20;37.70;;;8.50;92.70;;;;;;5032802;28;20501;-85
2021/03/04 02:46:10;;;;;;;74.27;37.03;;;8.50;92.40;;;;;;5034442;28;20067;-85
2021/03/04 02:48:36;;;;;;;70.97;36.90;;;8.60;92.50;;;;;;5034445;28;20025;-85
2021/03/04 02:51:03;;;;;;;73.90;36.80;;;8.50;92.50;;;;;;5036600;28;20418;-85
2021/03/04 02:53:29;;;;;;;68.93;37.27;;;8.50;92.60;;;;;;5036690;28;20026;-86
2021/03/04 02:55:56;;;;;;;72.10;36.57;;;8.50;92.50;;;;;;5036752;28;20056;-85
2021/03/04 02:58:23;;;;;;;74.57;38.53;;;8.40;92.50;;;;;;5036165;28;20112;-85
2021/03/04 03:00:49;;;;;;;69.97;36.83;;;8.40;93.00;;;;;;5037654;28;20033;-85
2021/03/04 03:03:16;;;;;;;69.30;37.77;;;8.40;92.60;;;;;;5038175;28;20064;-85
2021/03/04 03:05:45;;;;;;;64.83;35.30;;;8.40;92.30;;;;;;5037915;28;20075;-84
2021/03/04 03:08:17;;;;;;;71.15;37.33;;;8.30;92.40;;;;;;5037095;28;20028;-85
2021/03/04 03:10:52;;;;;;;70.07;36.63;;;8.30;92.60;;;;;;5036457;28;20040;-85
2021/03/04 03:13:19;;;;;;;75.33;36.87;;;8.10;92.70;;;;;;5038416;28;20084;-85
2021/03/04 03:15:45;;;;;;;68.30;36.30;;;8.20;92.90;;;;;;5036436;28;20061;-85
2021/03/04 03:18:12;;;;;;;69.43;35.03;;;8.20;92.50;;;;;;5038262;28;20084;-85
2021/03/04 03:20:38;;;;;;;74.47;36.70;;;8.20;92.30;;;;;;5035915;28;20470;-85
2021/03/04 03:23:03;;;;;;;69.33;37.53;;;8.20;92.50;;;;;;5036200;28;20035;-85
2021/03/04 03:25:29;;;;;;;69.17;35.90;;;8.20;92.80;;;;;;5036289;28;20493;-85
2021/03/04 03:27:55;;;;;;;69.00;36.47;;;8.10;92.70;;;;;;5035835;28;20413;-85
2021/03/04 03:30:25;;;;;;;74.40;37.10;;;8.20;92.70;;;;;;5036802;28;20036;-85
2021/03/04 03:32:59;;;;;;;74.95;37.28;;;8.20;92.60;;;;;;5036675;28;20067;-84
2021/03/04 03:35:28;;;;;;;72.73;37.17;;;8.20;92.70;;;;;;5035622;28;20065;-85
2021/03/04 03:37:55;;;;;;;;;;;8.20;92.60;;;;;;5037335;28;20030;-85
2021/03/04 03:40:21;;;;;;;74.97;37.20;;;8.10;92.60;;;;;;5036609;28;19912;-85
2021/03/04 03:42:49;;;;;;;76.30;37.90;;;8.10;93.00;;;;;;5036396;28;20029;-85
2021/03/04 03:45:22;;;;;;;72.67;36.53;;;8.00;92.60;;;;;;5036290;28;20074;-85
2021/03/04 03:47:50;;;;;;;79.53;37.73;;;8.00;92.60;;;;;;5034707;28;20025;-84
2021/03/04 03:50:17;;;;;;;73.43;36.47;;;8.10;92.60;;;;;;5035821;28;20548;-85
2021/03/04 03:52:45;;;;;;;75.47;37.40;;;8.00;92.70;;;;;;5036162;28;20029;-84
2021/03/04 03:55:14;;;;;;;69.90;36.63;;;8.00;92.80;;;;;;5033488;28;20390;-85
2021/03/04 03:57:41;;;;;;;70.93;36.50;;;7.90;93.00;;;;;;5034649;28;20026;-85
2021/03/04 04:00:08;;;;;;;74.63;36.57;;;8.00;92.80;;;;;;5034478;28;20033;-85
2021/03/04 04:02:35;;;;;;;68.33;35.57;;;8.00;93.10;;;;;;5035106;28;20026;-84
2021/03/04 04:05:02;;;;;;;66.70;35.23;;;8.00;93.00;;;;;;5036264;28;20386;-85
2021/03/04 04:07:29;;;;;;;69.30;35.40;;;7.90;92.90;;;;;;5035195;28;20029;-85
2021/03/04 04:09:56;;;;;;;71.13;35.97;;;7.90;92.90;;;;;;5034474;28;20117;-85
2021/03/04 04:12:22;;;;;;;65.17;34.17;;;8.00;92.80;;;;;;5036369;28;20036;-85
2021/03/04 04:14:49;;;;;;;71.60;36.97;;;7.90;92.80;;;;;;5034662;28;20561;-85
2021/03/04 04:17:15;;;;;;;67.00;34.83;;;7.90;92.90;;;;;;5034883;28;20036;-85
2021/03/04 04:19:41;;;;;;;66.13;34.50;;;7.90;93.00;;;;;;5036003;28;20116;-85
2021/03/04 04:22:07;;;;;;;68.20;34.57;;;7.90;92.90;;;;;;5036334;28;20026;-85
2021/03/04 04:24:33;;;;;;;68.57;35.00;;;7.80;92.60;;;;;;5036483;28;20072;-85
2021/03/04 04:26:58;;;;;;;66.77;36.07;;;7.80;92.60;;;;;;5034448;28;20018;-85
2021/03/04 04:29:24;;;;;;;65.03;33.27;;;7.80;93.20;;;;;;5034101;28;20024;-85
2021/03/04 04:31:50;;;;;;;67.17;33.53;;;7.70;92.90;;;;;;5034320;28;20021;-85
2021/03/04 04:34:16;;;;;;;67.67;35.00;;;7.80;92.80;;;;;;5034488;28;20092;-85
2021/03/04 04:36:42;;;;;;;66.03;33.77;;;7.70;93.00;;;;;;5036013;28;20444;-84
2021/03/04 04:39:07;;;;;;;71.60;34.90;;;7.70;92.70;;;;;;5035809;28;20069;-84
2021/03/04 04:41:33;;;;;;;66.30;33.50;;;7.70;92.60;;;;;;5036042;28;20033;-85
2021/03/04 04:43:59;;;;;;;66.90;35.20;;;7.70;92.50;;;;;;5036450;28;20024;-85
2021/03/04 04:46:26;;;;;;;67.60;33.90;;;7.60;92.60;;;;;;5034805;28;20025;-85
2021/03/04 04:48:52;;;;;;;70.17;34.47;;;7.60;92.70;;;;;;5035255;28;20021;-85
2021/03/04 04:51:17;;;;;;;69.80;34.40;;;7.70;92.80;;;;;;5036355;28;20037;-84
2021/03/04 04:53:43;;;;;;;81.40;35.00;;;7.70;93.00;;;;;;5034891;28;20025;-85
2021/03/04 04:56:09;;;;;;;69.17;35.47;;;7.60;92.60;;;;;;5036077;28;20445;-85
2021/03/04 04:58:35;;;;;;;70.23;35.40;;;7.60;92.80;;;;;;5034768;28;20022;-85
2021/03/04 05:01:00;;;;;;;67.23;35.30;;;7.60;92.70;;;;;;5034921;28;20022;-85
2021/03/04 05:03:26;;;;;;;70.77;35.77;;;7.70;92.80;;;;;;5035775;28;20036;-85
2021/03/04 05:05:51;;;;;;;64.47;33.60;;;7.60;92.70;;;;;;5036166;28;20029;-85
2021/03/04 05:08:17;;;;;;;63.63;34.27;;;7.60;92.70;;;;;;5035606;28;20379;-85
2021/03/04 05:10:43;;;;;;;64.37;34.30;;;7.60;92.70;;;;;;5033137;28;20026;-85
2021/03/04 05:13:09;;;;;;;65.23;35.27;;;7.70;92.70;;;;;;5035199;28;20282;-84
2021/03/04 05:15:35;;;;;;;65.50;34.63;;;7.80;92.30;;;;;;5033629;28;20029;-85
2021/03/04 05:18:00;;;;;;;64.50;33.83;;;7.80;92.30;;;;;;5034253;28;20544;-84
2021/03/04 05:20:26;;;;;;;64.50;33.20;;;7.70;92.50;;;;;;5033687;28;20026;-85
2021/03/04 05:22:52;;;;;;;66.13;34.73;;;7.60;92.30;;;;;;5036060;28;20029;-85
2021/03/04 05:25:18;;;;;;;66.30;33.10;;;7.50;92.50;;;;;;5034524;28;20363;-85
2021/03/04 05:27:43;;;;;;;61.40;31.77;;;7.50;92.50;;;;;;5034964;28;20021;-85
2021/03/04 05:30:12;;;;;;;63.97;33.73;;;7.50;92.80;;;;;;5033980;28;20033;-84
2021/03/04 05:32:38;;;;;;;72.00;36.05;;;7.40;92.60;;;;;;5035573;28;20025;-85
2021/03/04 05:35:04;;;;;;;66.07;34.13;;;7.30;92.80;;;;;;5035224;28;20044;-85
2021/03/04 05:37:30;;;;;;;67.20;34.60;;;7.30;92.80;;;;;;5035461;28;20025;-85
2021/03/04 05:39:56;;;;;;;67.20;33.00;;;7.40;92.70;;;;;;5033118;28;20513;-85
2021/03/04 05:42:21;;;;;;;77.37;35.23;;;7.40;92.70;;;;;;5033457;28;20029;-85
2021/03/04 05:44:48;;;;;;;79.37;37.73;;;7.20;92.60;;;;;;5034194;28;20029;-84
2021/03/04 05:47:14;;;;;;;95.13;39.63;;;7.10;93.40;;;;;;5035654;28;20052;-84
2021/03/04 05:49:46;;;;;;;96.20;39.67;;;7.10;93.30;;;;;;5034859;28;20025;-84
2021/03/04 05:52:16;;;;;;;89.23;38.70;;;7.10;93.30;;;;;;5034680;28;20505;-85
2021/03/04 05:54:45;;;;;;;139.97;49.10;;;7.20;93.60;;;;;;5034576;28;20026;-85
2021/03/04 05:57:11;;;;;;;145.80;48.40;;;7.10;93.30;;;;;;5033378;28;20139;-85
2021/03/04 05:59:38;;;;;;;171.70;52.83;;;7.10;93.30;;;;;;5033756;28;20060;-85
2021/03/04 06:02:08;;;;;;;176.87;51.47;;;7.10;93.40;;;;;;5033334;28;20454;-85
2021/03/04 06:04:34;;;;;;;168.70;51.30;;;7.10;93.50;;;;;;5033072;28;20359;-84
2021/03/04 06:07:00;;;;;;;139.07;45.77;;;7.10;93.50;;;;;;5034696;28;20052;-84
2021/03/04 06:09:29;;;;;;;127.20;45.13;;;7.10;93.50;;;;;;5031306;28;20025;-84
2021/03/04 06:12:05;;;;;;;125.17;43.73;;;7.20;93.30;;;;;;5032604;28;20439;-84
2021/03/04 06:14:32;;;;;;;134.73;43.47;;;7.10;93.50;;;;;;5032265;28;20029;-84
2021/03/04 06:17:17;;;;;;;144.40;46.20;;;7.10;93.30;;;;;;5031049;28;20588;-84
2021/03/04 06:19:56;;;;;;;115.37;42.53;;;7.00;93.70;;;;;;5030895;28;20367;-84
2021/03/04 06:22:23;;;;;;;;;;;7.00;93.90;;;;;;5032461;28;20075;-84
2021/03/04 06:24:56;;;;;;;107.77;39.87;;;7.10;94.10;;;;;;5031182;28;19912;-85
2021/03/04 06:27:45;;;;;;;122.70;42.83;;;7.10;93.80;;;;;;5032602;28;20543;-85
2021/03/04 06:30:13;;;;;;;124.80;42.43;;;7.00;93.90;;;;;;5032267;28;20176;-86
2021/03/04 06:32:40;;;;;;;136.13;47.00;;;7.10;93.90;;;;;;5033184;28;20136;-84
2021/03/04 06:35:13;;;;;;;135.93;47.73;;;7.10;93.60;;;;;;5032701;28;20030;-85
2021/03/04 06:37:41;;;;;;;134.53;47.93;;;6.90;94.20;;;;;;5032942;28;20034;-84
2021/03/04 06:40:30;;;;;;;137.93;48.07;;;7.00;94.10;;;;;;5033771;28;20541;-85
2021/03/04 06:42:55;;;;;;;166.43;51.53;;;6.90;94.30;;;;;;5035216;28;20034;-85
2021/03/04 06:45:22;;;;;;;160.23;51.83;;;6.90;94.40;;;;;;5035550;28;20028;-84
2021/03/04 06:47:47;;;;;;;162.77;51.57;;;7.00;94.60;;;;;;5033430;28;20117;-85
2021/03/04 06:50:22;;;;;;;162.77;52.17;;;7.00;94.40;;;;;;5031585;28;20064;-84
2021/03/04 06:52:47;;;;;;;171.13;53.17;;;7.00;94.80;;;;;;5033171;28;20071;-84
2021/03/04 06:55:14;;;;;;;168.73;53.57;;;7.10;94.50;;;;;;5031784;28;20087;-85
2021/03/04 06:57:40;;;;;;;194.67;56.70;;;7.10;94.40;;;;;;5033201;28;20025;-85
2021/03/04 07:00:17;;;;;;;198.37;58.00;;;7.10;94.70;;;;;;5032753;28;20489;-85
2021/03/04 07:02:51;;;;;;;203.97;61.83;;;7.10;94.90;;;;;;5032124;28;20025;-85
2021/03/04 07:05:17;;;;;;;202.17;56.83;;;7.20;94.40;;;;;;5033311;28;20033;-84
2021/03/04 07:07:46;;;;;;;216.97;61.57;;;7.10;94.50;;;;;;5032838;28;20025;-84
2021/03/04 07:10:12;;;;;;;203.18;59.85;;;7.10;94.60;;;;;;5030994;28;20071;-84
2021/03/04 07:12:41;;;;;;;194.97;57.90;;;7.10;94.50;;;;;;5033317;28;20461;-85
2021/03/04 07:15:08;;;;;;;184.27;59.28;;;7.20;95.20;;;;;;5032480;28;20034;-85
2021/03/04 07:17:35;;;;;;;198.80;57.47;;;7.30;94.90;;;;;;5031985;28;20124;-85
2021/03/04 07:20:02;;;;;;;188.17;59.10;;;7.30;94.90;;;;;;5033893;28;20022;-85
2021/03/04 07:22:30;;;;;;;175.37;54.77;;;7.20;95.00;;;;;;5033145;28;20120;-85
2021/03/04 07:24:57;;;;;;;170.83;54.07;;;7.10;95.10;;;;;;5030716;28;20030;-84
2021/03/04 07:27:23;;;;;;;194.03;57.67;;;7.10;95.30;;;;;;5034480;28;20057;-85
2021/03/04 07:29:51;;;;;;;168.60;56.37;;;7.10;95.60;;;;;;5033510;28;20114;-85
2021/03/04 07:32:17;;;;;;;159.97;52.70;;;7.10;95.60;;;;;;5034522;28;20025;-85
2021/03/04 07:34:43;;;;;;;116.83;42.63;;;7.10;95.70;;;;;;5036510;28;20033;-85
2021/03/04 07:37:10;;;;;;;133.27;45.87;;;7.10;95.60;;;;;;5038385;28;20032;-84
2021/03/04 07:39:39;;;;;;;134.97;45.73;;;7.10;95.60;;;;;;5036447;28;20029;-85
2021/03/04 07:42:25;;;;;;;111.78;40.90;;;7.10;95.70;;;;;;5037221;28;20029;-84
2021/03/04 07:44:51;;;;;;;107.50;39.37;;;7.10;95.60;;;;;;5035733;28;20033;-84
2021/03/04 07:47:28;;;;;;;104.30;37.17;;;7.00;95.40;;;;;;5036484;28;20481;-84
2021/03/04 07:49:55;;;;;;;91.93;34.63;;;7.00;95.50;;;;;;5036563;28;20045;-84
2021/03/04 07:52:25;;;;;;;78.67;31.83;;;6.90;95.80;;;;;;5036695;28;20441;-85
2021/03/04 07:54:55;;;;;;;76.70;30.83;;;6.90;95.60;;;;;;5036526;28;20029;-85
2021/03/04 07:57:23;;;;;;;72.97;30.10;;;7.00;95.50;;;;;;5036828;28;20033;-84
2021/03/04 07:59:57;;;;;;;73.37;28.90;;;6.90;95.50;;;;;;5034341;28;20029;-85
2021/03/04 08:02:28;;;;;;;70.23;29.70;;;6.90;95.60;;;;;;5036086;28;20097;-84
2021/03/04 08:05:14;;;;;;;77.90;30.10;;;7.00;95.50;;;;;;5034624;28;20129;-84
2021/03/04 08:07:42;;;;;;;80.33;30.80;;;7.00;95.80;;;;;;5036585;28;20478;-85
2021/03/04 08:10:12;;;;;;;102.10;39.20;;;7.00;95.70;;;;;;5035697;28;20429;-84
2021/03/04 08:12:58;;;;;;;104.67;38.97;;;6.90;95.80;;;;;;5036215;28;20022;-84
2021/03/04 08:15:35;;;;;;;98.03;36.30;;;6.90;96.30;;;;;;5035083;28;20048;-85
2021/03/04 08:18:04;;;;;;;88.53;34.10;;;6.80;96.60;;;;;;5036359;28;20040;-84
2021/03/04 08:20:30;;;;;;;92.10;34.10;;;6.90;97.00;;;;;;5036535;28;20026;-84
2021/03/04 08:22:57;;;;;;;73.93;30.67;;;7.00;96.80;;;;;;5033833;28;20053;-85
2021/03/04 08:25:29;;;;;;;73.87;30.53;;;7.00;96.50;;;;;;5035313;28;20152;-86
2021/03/04 08:27:56;;;;;;;73.20;30.07;;;6.90;96.40;;;;;;5034520;28;20031;-85
2021/03/04 08:30:37;;;;;;;74.63;30.70;;;6.90;96.30;;;;;;5035919;28;20026;-84
2021/03/04 08:33:14;;;;;;;67.93;30.90;;;6.80;96.50;;;;;;5033945;28;20025;-85
2021/03/04 08:35:45;;;;;;;66.70;28.10;;;6.90;96.50;;;;;;5034961;28;20021;-85
2021/03/04 08:38:13;;;;;;;61.90;28.60;;;7.00;96.40;;;;;;5036117;28;20029;-85
2021/03/04 08:40:47;;;;;;;61.77;26.60;;;6.90;96.50;;;;;;5036723;28;20092;-85
2021/03/04 08:43:15;;;;;;;58.93;25.80;;;7.00;96.40;;;;;;5035381;28;20025;-85
2021/03/04 08:45:41;;;;;;;51.03;23.30;;;7.00;96.10;;;;;;5035541;28;20028;-85
2021/03/04 08:48:08;;;;;;;47.07;21.40;;;6.90;96.30;;;;;;5036820;28;20479;-84
2021/03/04 08:50:45;;;;;;;46.63;20.20;;;6.90;96.20;;;;;;5035948;28;20109;-85
2021/03/04 08:53:15;;;;;;;40.60;18.77;;;7.00;96.50;;;;;;5035739;28;20068;-85
2021/03/04 08:55:47;;;;;;;41.63;18.77;;;6.90;96.00;;;;;;5037256;28;20045;-85
2021/03/04 08:58:13;;;;;;;41.17;17.90;;;6.80;96.60;;;;;;5036333;28;20029;-85
2021/03/04 09:00:39;;;;;;;33.93;16.33;;;6.80;96.70;;;;;;5036711;28;20116;-85
2021/03/04 09:03:10;;;;;;;31.60;15.37;;;6.80;96.60;;;;;;5036014;28;20060;-85
2021/03/04 09:05:36;;;;;;;37.07;16.10;;;6.80;95.50;;;;;;5034864;28;20029;-86
2021/03/04 09:08:31;;;;;;;36.07;16.40;;;6.60;96.20;;;;;;5036137;28;20029;-86
2021/03/04 09:10:57;;;;;;;35.03;16.47;;;6.40;96.70;;;;;;5032715;28;20025;-85
2021/03/04 09:13:26;;;;;;;36.63;15.97;;;6.60;97.10;;;;;;5034129;28;20026;-85
2021/03/04 09:15:55;;;;;;;39.72;15.73;;;6.60;96.60;;;;;;5034584;28;20120;-86
2021/03/04 09:18:21;;;;;;;33.67;14.43;;;6.70;96.70;;;;;;5034227;28;20025;-86
2021/03/04 09:20:49;;;;;;;32.17;14.57;;;6.50;96.20;;;;;;5032993;28;20032;-85
2021/03/04 09:23:15;;;;;;;32.17;13.47;;;6.50;96.30;;;;;;5033366;28;20115;-86
2021/03/04 09:25:41;;;;;;;31.67;13.37;;;6.40;96.00;;;;;;5033286;28;20026;-86
2021/03/04 09:28:11;;;;;;;24.50;11.83;;;6.40;97.20;;;;;;5034767;28;20103;-86
2021/03/04 09:30:36;;;;;;;23.77;12.27;;;6.30;97.10;;;;;;5032746;28;20107;-85
2021/03/04 09:33:02;;;;;;;25.90;12.20;;;6.40;97.10;;;;;;5033443;28;20025;-84
2021/03/04 09:35:28;;;;;;;23.03;10.77;;;6.40;97.20;;;;;;5033113;28;20036;-85
2021/03/04 09:38:05;;;;;;;24.23;11.20;;;6.50;97.20;;;;;;5033217;28;20104;-84
2021/03/04 09:40:30;;;;;;;22.03;9.80;;;6.60;96.90;;;;;;5032466;28;20032;-85
2021/03/04 09:42:57;;;;;;;22.23;10.17;;;6.50;96.20;;;;;;5032623;28;20030;-85
2021/03/04 09:45:23;;;;;;;21.23;10.27;;;6.40;96.60;;;;;;5032811;28;20159;-86
2021/03/04 09:47:50;;;;;;;21.93;10.43;;;6.20;97.20;;;;;;5034338;28;20283;-86
2021/03/04 09:50:26;;;;;;;19.87;9.83;;;6.30;97.30;;;;;;5032612;28;20060;-86
2021/03/04 09:53:04;;;;;;;18.40;8.77;;;6.50;97.30;;;;;;5036203;28;20029;-86
2021/03/04 09:55:48;;;;;;;17.50;8.90;;;6.50;96.80;;;;;;5033337;28;20064;-86
2021/03/04 09:58:21;;;;;;;14.67;8.00;;;6.40;95.90;;;;;;5034988;28;20021;-87
2021/03/04 10:00:55;;;;;;;14.67;7.27;;;6.40;96.20;;;;;;5032045;28;20021;-85
2021/03/04 10:03:20;;;;;;;12.23;6.17;;;6.40;95.80;;;;;;5032439;28;20052;-85
2021/03/04 10:05:50;;;;;;;12.43;6.40;;;6.40;95.80;;;;;;5034782;28;20374;-85
2021/03/04 10:08:19;;;;;;;13.47;6.43;;;6.30;96.60;;;;;;5035254;28;20021;-85
2021/03/04 10:10:49;;;;;;;17.52;6.95;;;6.30;96.20;;;;;;5032391;28;20033;-86
2021/03/04 10:13:29;;;;;;;16.63;6.20;;;6.40;96.90;;;;;;5033402;28;20498;-86
2021/03/04 10:15:54;;;;;;;;;;;6.40;96.80;;;;;;5034059;28;20037;-86
2021/03/04 10:18:20;;;;;;;11.33;6.00;;;6.50;96.90;;;;;;5033768;28;19919;-87
2021/03/04 10:20:46;;;;;;;10.03;5.90;;;6.50;96.90;;;;;;5032626;28;20032;-86
2021/03/04 10:23:17;;;;;;;12.47;6.00;;;6.50;97.50;;;;;;5033439;28;20039;-85
2021/03/04 10:25:44;;;;;;;11.83;5.47;;;6.60;96.00;;;;;;5032631;28;20497;-87
2021/03/04 10:28:09;;;;;;;9.60;4.30;;;6.60;96.60;;;;;;5032652;28;20468;-85
2021/03/04 10:30:36;;;;;;;8.17;4.17;;;6.60;96.70;;;;;;5033039;28;20068;-85
2021/03/04 10:33:03;;;;;;;7.33;3.83;;;6.70;96.70;;;;;;5032309;28;20116;-86
2021/03/04 10:35:30;;;;;;;9.17;4.33;;;6.70;96.50;;;;;;5032143;28;20497;-85
2021/03/04 10:37:56;;;;;;;8.23;3.80;;;6.70;96.20;;;;;;5032548;28;20029;-85
2021/03/04 10:40:21;;;;;;;6.43;3.67;;;6.60;96.20;;;;;;5031937;28;20501;-85
2021/03/04 10:42:48;;;;;;;9.47;3.50;;;6.60;95.60;;;;;;5032046;28;20120;-86
2021/03/04 10:45:15;;;;;;;8.67;3.63;;;6.60;95.70;;;;;;5033854;28;20032;-85
2021/03/04 10:47:42;;;;;;;9.63;3.87;;;6.60;96.10;;;;;;5032259;28;20026;-86
2021/03/04 10:50:11;;;;;;;6.97;3.60;;;6.60;96.00;;;;;;5031340;28;20018;-85
2021/03/04 10:52:37;;;;;;;6.90;3.28;;;6.60;96.20;;;;;;5031946;28;20026;-85
2021/03/04 10:55:04;;;;;;;8.60;3.80;;;6.60;95.90;;;;;;5031120;28;20034;-86
2021/03/04 10:57:30;;;;;;;6.50;2.93;;;6.60;95.50;;;;;;5031933;28;20116;-86
2021/03/04 10:59:56;;;;;;;5.07;2.57;;;6.60;95.80;;;;;;5029929;28;20033;-86
2021/03/04 11:02:22;;;;;;;8.33;3.00;;;6.60;94.90;;;;;;5031830;28;20577;-86
2021/03/04 11:04:47;;;;;;;5.13;2.53;;;6.60;95.60;;;;;;5031665;28;20104;-85
2021/03/04 11:07:13;;;;;;;5.77;2.87;;;6.60;96.50;;;;;;5030629;28;20022;-86
2021/03/04 11:09:39;;;;;;;7.00;2.60;;;6.70;96.30;;;;;;5032652;28;20029;-86
2021/03/04 11:12:05;;;;;;;6.63;3.10;;;6.70;95.80;;;;;;5033995;28;20040;-86
2021/03/04 11:14:31;;;;;;;6.73;3.47;;;6.70;96.10;;;;;;5037340;28;20037;-85
2021/03/04 11:16:56;;;;;;;6.47;3.43;;;6.70;96.30;;;;;;5037653;28;20165;-86
2021/03/04 11:19:22;;;;;;;5.30;2.97;;;6.60;94.90;;;;;;5035672;28;20025;-86
2021/03/04 11:21:47;;;;;;;6.27;3.07;;;6.30;96.20;;;;;;5037602;28;20425;-86
2021/03/04 11:24:13;;;;;;;6.03;4.03;;;6.50;96.10;;;;;;5037801;28;20022;-86
2021/03/04 11:26:40;;;;;;;6.17;3.00;;;6.40;95.40;;;;;;5036252;28;20116;-85
2021/03/04 11:29:08;;;;;;;10.40;4.30;;;6.20;95.60;;;;;;5035565;28;20037;-87
2021/03/04 11:31:34;;;;;;;7.87;3.70;;;6.20;95.80;;;;;;5036154;28;20025;-87
2021/03/04 11:34:00;;;;;;;8.13;4.40;;;6.10;95.90;;;;;;5038128;28;20065;-86
2021/03/04 11:36:27;;;;;;;6.87;4.03;;;6.10;96.10;;;;;;5036705;28;20502;-87
2021/03/04 11:38:53;;;;;;;8.83;4.13;;;6.20;96.10;;;;;;5037019;28;20492;-86
2021/03/04 11:41:19;;;;;;;7.73;3.80;;;6.20;95.60;;;;;;5036607;28;20029;-86
2021/03/04 11:43:45;;;;;;;10.30;4.63;;;6.30;96.20;;;;;;5036276;28;20037;-86
2021/03/04 11:46:11;;;;;;;9.13;4.37;;;6.30;96.40;;;;;;5037262;28;20021;-86
2021/03/04 11:48:37;;;;;;;7.63;3.87;;;6.30;96.00;;;;;;5036684;28;20022;-85
2021/03/04 11:51:03;;;;;;;8.07;4.10;;;6.40;95.70;;;;;;5036670;28;20501;-85
2021/03/04 11:53:29;;;;;;;8.30;3.70;;;6.40;95.50;;;;;;5037151;28;20033;-85
2021/03/04 11:55:54;;;;;;;10.20;4.70;;;6.40;95.50;;;;;;5036796;28;20502;-85
2021/03/04 11:58:20;;;;;;;13.87;5.57;;;6.40;95.20;;;;;;5036503;28;20025;-85
2021/03/04 12:00:45;;;;;;;16.97;6.43;;;6.40;95.20;;;;;;5035914;28;20018;-85
2021/03/04 12:03:11;;;;;;;19.53;7.43;;;6.50;95.40;;;;;;5036583;28;20057;-84
2021/03/04 12:05:37;;;;;;;16.47;6.90;;;6.50;95.20;;;;;;5036163;28;20018;-85
2021/03/04 12:08:03;;;;;;;18.97;7.90;;;6.50;95.00;;;;;;5036046;28;20032;-85
2021/03/04 12:10:28;;;;;;;19.67;7.30;;;6.50;94.70;;;;;;5034671;28;20022;-85
2021/03/04 12:12:54;;;;;;;23.53;8.47;;;6.40;94.40;;;;;;5034896;28;20096;-85
2021/03/04 12:15:20;;;;;;;21.43;8.73;;;6.40;94.90;;;;;;5035237;28;20033;-86
2021/03/04 12:17:46;;;;;;;29.03;10.67;;;6.40;95.00;;;;;;5035963;28;20075;-85
2021/03/04 12:20:12;;;;;;;22.30;9.97;;;6.30;94.80;;;;;;5034600;28;20375;-86
2021/03/04 12:22:38;;;;;;;19.77;8.53;;;6.30;95.00;;;;;;5036140;28;20454;-86
2021/03/04 12:25:06;;;;;;;20.47;8.97;;;6.30;94.60;;;;;;5036210;28;20021;-87
2021/03/04 12:27:32;;;;;;;20.73;8.97;;;6.40;94.70;;;;;;5034681;28;20045;-85
2021/03/04 12:29:57;;;;;;;27.50;10.77;;;6.30;94.10;;;;;;5035913;28;20029;-87
2021/03/04 12:32:23;;;;;;;26.53;10.77;;;6.30;94.40;;;;;;5035290;28;20489;-87
2021/03/04 12:34:48;;;;;;;22.43;9.57;;;6.30;95.20;;;;;;5035329;28;20025;-85
2021/03/04 12:37:14;;;;;;;21.33;9.27;;;6.30;94.60;;;;;;5035347;28;20022;-86
2021/03/04 12:39:40;;;;;;;24.23;9.60;;;6.30;95.20;;;;;;5036052;28;20029;-86
2021/03/04 12:42:05;;;;;;;23.70;9.67;;;6.20;95.70;;;;;;5036714;28;20421;-86
2021/03/04 12:44:31;;;;;;;21.43;8.97;;;6.10;95.20;;;;;;5036639;28;20017;-86